sensor_id;sensor_type;location;lat;lon;timestamp;P1;durP1;ratioP1;P2;durP2;ratioP2
29902;SDS011;30288;50.514;9.678;2022-12-07T00:00:09;24.83;;;14.13;;
29902;SDS011;30288;50.514;9.678;2022-12-07T00:02:17;28.52;;;15.43;;
29902;SDS011;30288;50.514;9.678;2022-12-07T00:04:22;24.27;;;14.15;;
29902;SDS011;30288;50.514;9.678;2022-12-07T00:06:27;25.92;;;14.07;;
29902;SDS011;30288;50.514;9.678;2022-12-07T00:08:32;28.08;;;14.55;;
29902;SDS011;30288;50.514;9.678;2022-12-07T00:10:38;26.20;;;14.10;;
29902;SDS011;30288;50.514;9.678;2022-12-07T00:12:46;28.00;;;14.68;;
29902;SDS011;30288;50.514;9.678;2022-12-07T00:14:51;22.52;;;12.68;;
29902;SDS011;30288;50.514;9.678;2022-12-07T00:16:57;24.80;;;14.48;;
29902;SDS011;30288;50.514;9.678;2022-12-07T00:19:02;27.20;;;14.70;;
29902;SDS011;30288;50.514;9.678;2022-12-07T00:21:09;27.02;;;15.07;;
29902;SDS011;30288;50.514;9.678;2022-12-07T00:23:16;28.45;;;15.00;;
29902;SDS011;30288;50.514;9.678;2022-12-07T00:25:21;24.40;;;14.57;;
29902;SDS011;30288;50.514;9.678;2022-12-07T00:27:27;28.38;;;14.25;;
29902;SDS011;30288;50.514;9.678;2022-12-07T00:29:35;26.98;;;14.50;;
29902;SDS011;30288;50.514;9.678;2022-12-07T00:31:40;28.02;;;15.07;;
29902;SDS011;30288;50.514;9.678;2022-12-07T00:33:46;23.55;;;13.35;;
29902;SDS011;30288;50.514;9.678;2022-12-07T00:35:54;23.23;;;13.82;;
29902;SDS011;30288;50.514;9.678;2022-12-07T00:38:00;26.20;;;14.95;;
29902;SDS011;30288;50.514;9.678;2022-12-07T00:40:06;26.15;;;14.07;;
29902;SDS011;30288;50.514;9.678;2022-12-07T00:42:13;26.50;;;15.05;;
29902;SDS011;30288;50.514;9.678;2022-12-07T00:44:18;27.75;;;14.93;;
29902;SDS011;30288;50.514;9.678;2022-12-07T00:46:26;26.05;;;14.85;;
29902;SDS011;30288;50.514;9.678;2022-12-07T00:48:31;26.95;;;15.18;;
29902;SDS011;30288;50.514;9.678;2022-12-07T00:50:38;28.13;;;15.45;;
29902;SDS011;30288;50.514;9.678;2022-12-07T00:52:43;29.13;;;16.35;;
29902;SDS011;30288;50.514;9.678;2022-12-07T00:54:48;25.70;;;15.30;;
29902;SDS011;30288;50.514;9.678;2022-12-07T00:56:53;30.88;;;16.33;;
29902;SDS011;30288;50.514;9.678;2022-12-07T00:58:59;28.17;;;15.52;;
29902;SDS011;30288;50.514;9.678;2022-12-07T01:01:07;28.88;;;16.55;;
29902;SDS011;30288;50.514;9.678;2022-12-07T01:03:17;29.35;;;16.50;;
29902;SDS011;30288;50.514;9.678;2022-12-07T01:05:23;32.40;;;17.20;;
29902;SDS011;30288;50.514;9.678;2022-12-07T01:07:28;34.10;;;16.77;;
29902;SDS011;30288;50.514;9.678;2022-12-07T01:09:33;28.90;;;16.70;;
29902;SDS011;30288;50.514;9.678;2022-12-07T01:11:39;34.95;;;18.20;;
29902;SDS011;30288;50.514;9.678;2022-12-07T01:13:44;31.63;;;18.05;;
29902;SDS011;30288;50.514;9.678;2022-12-07T01:15:50;35.00;;;19.50;;
29902;SDS011;30288;50.514;9.678;2022-12-07T01:17:55;36.70;;;18.15;;
29902;SDS011;30288;50.514;9.678;2022-12-07T01:20:03;38.03;;;19.67;;
29902;SDS011;30288;50.514;9.678;2022-12-07T01:22:11;35.72;;;19.40;;
29902;SDS011;30288;50.514;9.678;2022-12-07T01:24:16;37.20;;;19.42;;
29902;SDS011;30288;50.514;9.678;2022-12-07T01:26:22;34.83;;;18.58;;
29902;SDS011;30288;50.514;9.678;2022-12-07T01:28:28;33.97;;;18.30;;
29902;SDS011;30288;50.514;9.678;2022-12-07T01:30:33;35.55;;;19.33;;
29902;SDS011;30288;50.514;9.678;2022-12-07T01:32:38;41.42;;;21.15;;
29902;SDS011;30288;50.514;9.678;2022-12-07T01:34:43;41.63;;;20.88;;
29902;SDS011;30288;50.514;9.678;2022-12-07T01:36:51;37.97;;;19.98;;
29902;SDS011;30288;50.514;9.678;2022-12-07T01:38:57;38.25;;;19.48;;
29902;SDS011;30288;50.514;9.678;2022-12-07T01:41:06;40.35;;;20.85;;
29902;SDS011;30288;50.514;9.678;2022-12-07T01:43:14;40.85;;;20.23;;
29902;SDS011;30288;50.514;9.678;2022-12-07T01:45:34;42.70;;;20.20;;
29902;SDS011;30288;50.514;9.678;2022-12-07T01:47:45;37.03;;;19.25;;
29902;SDS011;30288;50.514;9.678;2022-12-07T01:49:54;42.88;;;20.85;;
29902;SDS011;30288;50.514;9.678;2022-12-07T01:52:05;41.40;;;22.50;;
29902;SDS011;30288;50.514;9.678;2022-12-07T01:54:18;41.25;;;20.10;;
29902;SDS011;30288;50.514;9.678;2022-12-07T01:56:26;41.47;;;21.48;;
29902;SDS011;30288;50.514;9.678;2022-12-07T01:58:33;41.25;;;21.58;;
29902;SDS011;30288;50.514;9.678;2022-12-07T02:00:39;37.90;;;20.27;;
29902;SDS011;30288;50.514;9.678;2022-12-07T02:02:47;39.40;;;20.83;;
29902;SDS011;30288;50.514;9.678;2022-12-07T02:04:57;44.47;;;21.17;;
29902;SDS011;30288;50.514;9.678;2022-12-07T02:07:07;42.92;;;21.30;;
29902;SDS011;30288;50.514;9.678;2022-12-07T02:09:12;39.08;;;21.17;;
29902;SDS011;30288;50.514;9.678;2022-12-07T02:11:18;39.50;;;20.90;;
29902;SDS011;30288;50.514;9.678;2022-12-07T02:13:25;45.55;;;23.33;;
29902;SDS011;30288;50.514;9.678;2022-12-07T02:15:38;38.45;;;21.33;;
29902;SDS011;30288;50.514;9.678;2022-12-07T02:18:05;37.35;;;19.77;;
29902;SDS011;30288;50.514;9.678;2022-12-07T02:20:18;38.97;;;21.13;;
29902;SDS011;30288;50.514;9.678;2022-12-07T02:22:51;40.35;;;21.52;;
29902;SDS011;30288;50.514;9.678;2022-12-07T02:25:15;45.33;;;21.70;;
29902;SDS011;30288;50.514;9.678;2022-12-07T02:27:37;40.10;;;21.13;;
29902;SDS011;30288;50.514;9.678;2022-12-07T02:29:53;43.85;;;21.63;;
29902;SDS011;30288;50.514;9.678;2022-12-07T02:32:06;39.17;;;22.40;;
29902;SDS011;30288;50.514;9.678;2022-12-07T02:34:18;41.72;;;20.70;;
29902;SDS011;30288;50.514;9.678;2022-12-07T02:36:31;42.70;;;21.23;;
29902;SDS011;30288;50.514;9.678;2022-12-07T02:38:44;38.13;;;19.80;;
29902;SDS011;30288;50.514;9.678;2022-12-07T02:40:57;43.38;;;21.10;;
29902;SDS011;30288;50.514;9.678;2022-12-07T02:43:10;39.95;;;20.48;;
29902;SDS011;30288;50.514;9.678;2022-12-07T02:45:27;41.17;;;20.15;;
29902;SDS011;30288;50.514;9.678;2022-12-07T02:47:34;40.15;;;20.05;;
29902;SDS011;30288;50.514;9.678;2022-12-07T02:49:41;39.05;;;19.83;;
29902;SDS011;30288;50.514;9.678;2022-12-07T02:51:47;39.20;;;19.67;;
29902;SDS011;30288;50.514;9.678;2022-12-07T02:53:52;34.90;;;18.60;;
29902;SDS011;30288;50.514;9.678;2022-12-07T02:55:57;36.80;;;19.35;;
29902;SDS011;30288;50.514;9.678;2022-12-07T02:58:08;31.90;;;18.65;;
29902;SDS011;30288;50.514;9.678;2022-12-07T03:00:29;34.95;;;18.33;;
29902;SDS011;30288;50.514;9.678;2022-12-07T03:02:45;30.60;;;16.98;;
29902;SDS011;30288;50.514;9.678;2022-12-07T03:05:00;38.75;;;17.98;;
29902;SDS011;30288;50.514;9.678;2022-12-07T03:07:24;30.55;;;17.00;;
29902;SDS011;30288;50.514;9.678;2022-12-07T03:09:41;34.03;;;16.38;;
29902;SDS011;30288;50.514;9.678;2022-12-07T03:11:55;30.70;;;16.50;;
29902;SDS011;30288;50.514;9.678;2022-12-07T03:14:15;31.20;;;17.50;;
29902;SDS011;30288;50.514;9.678;2022-12-07T03:16:29;32.75;;;17.65;;
29902;SDS011;30288;50.514;9.678;2022-12-07T03:18:40;30.83;;;16.52;;
29902;SDS011;30288;50.514;9.678;2022-12-07T03:20:52;29.33;;;16.65;;
29902;SDS011;30288;50.514;9.678;2022-12-07T03:23:02;30.15;;;15.13;;
29902;SDS011;30288;50.514;9.678;2022-12-07T03:25:11;28.02;;;15.60;;
29902;SDS011;30288;50.514;9.678;2022-12-07T03:27:21;30.67;;;16.17;;
29902;SDS011;30288;50.514;9.678;2022-12-07T03:29:31;28.92;;;15.93;;
29902;SDS011;30288;50.514;9.678;2022-12-07T03:31:45;28.52;;;15.45;;
29902;SDS011;30288;50.514;9.678;2022-12-07T03:33:59;30.80;;;16.35;;
29902;SDS011;30288;50.514;9.678;2022-12-07T03:36:14;31.98;;;14.43;;
29902;SDS011;30288;50.514;9.678;2022-12-07T03:38:25;26.15;;;14.48;;
29902;SDS011;30288;50.514;9.678;2022-12-07T03:40:39;30.10;;;15.40;;
29902;SDS011;30288;50.514;9.678;2022-12-07T03:42:51;28.30;;;15.88;;
29902;SDS011;30288;50.514;9.678;2022-12-07T03:44:57;30.60;;;15.63;;
29902;SDS011;30288;50.514;9.678;2022-12-07T03:47:05;28.90;;;15.43;;
29902;SDS011;30288;50.514;9.678;2022-12-07T03:49:18;30.88;;;16.05;;
29902;SDS011;30288;50.514;9.678;2022-12-07T03:51:31;30.10;;;15.45;;
29902;SDS011;30288;50.514;9.678;2022-12-07T03:55:53;27.98;;;16.52;;
29902;SDS011;30288;50.514;9.678;2022-12-07T03:58:00;31.13;;;16.98;;
29902;SDS011;30288;50.514;9.678;2022-12-07T04:00:11;30.40;;;16.20;;
29902;SDS011;30288;50.514;9.678;2022-12-07T04:02:20;32.28;;;17.17;;
29902;SDS011;30288;50.514;9.678;2022-12-07T04:04:26;30.38;;;17.30;;
29902;SDS011;30288;50.514;9.678;2022-12-07T04:06:32;32.53;;;16.98;;
29902;SDS011;30288;50.514;9.678;2022-12-07T04:08:38;29.88;;;16.77;;
29902;SDS011;30288;50.514;9.678;2022-12-07T04:10:43;40.47;;;18.52;;
29902;SDS011;30288;50.514;9.678;2022-12-07T04:12:48;32.17;;;18.20;;
29902;SDS011;30288;50.514;9.678;2022-12-07T04:14:53;32.05;;;17.42;;
29902;SDS011;30288;50.514;9.678;2022-12-07T04:16:59;32.92;;;18.08;;
29902;SDS011;30288;50.514;9.678;2022-12-07T04:19:06;37.20;;;17.17;;
29902;SDS011;30288;50.514;9.678;2022-12-07T04:21:11;35.63;;;18.95;;
29902;SDS011;30288;50.514;9.678;2022-12-07T04:23:16;34.67;;;18.63;;
29902;SDS011;30288;50.514;9.678;2022-12-07T04:25:21;32.85;;;18.77;;
29902;SDS011;30288;50.514;9.678;2022-12-07T04:27:26;33.80;;;17.20;;
29902;SDS011;30288;50.514;9.678;2022-12-07T04:29:32;34.65;;;18.83;;
29902;SDS011;30288;50.514;9.678;2022-12-07T04:31:38;32.95;;;18.23;;
29902;SDS011;30288;50.514;9.678;2022-12-07T04:33:44;31.67;;;17.13;;
29902;SDS011;30288;50.514;9.678;2022-12-07T04:35:51;31.95;;;17.75;;
29902;SDS011;30288;50.514;9.678;2022-12-07T04:37:56;31.88;;;17.88;;
29902;SDS011;30288;50.514;9.678;2022-12-07T04:40:02;31.13;;;18.42;;
29902;SDS011;30288;50.514;9.678;2022-12-07T04:42:10;31.60;;;16.38;;
29902;SDS011;30288;50.514;9.678;2022-12-07T04:44:16;30.60;;;17.48;;
29902;SDS011;30288;50.514;9.678;2022-12-07T04:46:22;29.45;;;16.20;;
29902;SDS011;30288;50.514;9.678;2022-12-07T04:48:28;29.73;;;17.33;;
29902;SDS011;30288;50.514;9.678;2022-12-07T04:50:35;31.08;;;16.52;;
29902;SDS011;30288;50.514;9.678;2022-12-07T04:52:49;28.95;;;16.52;;
29902;SDS011;30288;50.514;9.678;2022-12-07T04:54:54;31.60;;;17.35;;
29902;SDS011;30288;50.514;9.678;2022-12-07T04:57:00;30.27;;;16.27;;
29902;SDS011;30288;50.514;9.678;2022-12-07T04:59:05;31.55;;;17.75;;
29902;SDS011;30288;50.514;9.678;2022-12-07T05:01:11;28.42;;;15.75;;
29902;SDS011;30288;50.514;9.678;2022-12-07T05:03:17;31.25;;;17.60;;
29902;SDS011;30288;50.514;9.678;2022-12-07T05:05:22;31.02;;;17.17;;
29902;SDS011;30288;50.514;9.678;2022-12-07T05:07:28;31.58;;;17.38;;
29902;SDS011;30288;50.514;9.678;2022-12-07T05:09:36;28.90;;;16.90;;
29902;SDS011;30288;50.514;9.678;2022-12-07T05:11:41;30.75;;;16.48;;
29902;SDS011;30288;50.514;9.678;2022-12-07T05:13:46;32.20;;;16.75;;
29902;SDS011;30288;50.514;9.678;2022-12-07T05:15:51;29.05;;;16.42;;
29902;SDS011;30288;50.514;9.678;2022-12-07T05:17:56;30.73;;;17.35;;
29902;SDS011;30288;50.514;9.678;2022-12-07T05:20:02;31.50;;;16.38;;
29902;SDS011;30288;50.514;9.678;2022-12-07T05:22:08;28.65;;;16.58;;
29902;SDS011;30288;50.514;9.678;2022-12-07T05:24:15;30.80;;;17.45;;
29902;SDS011;30288;50.514;9.678;2022-12-07T05:26:23;31.50;;;17.52;;
29902;SDS011;30288;50.514;9.678;2022-12-07T05:28:28;28.88;;;17.45;;
29902;SDS011;30288;50.514;9.678;2022-12-07T05:30:33;27.40;;;16.33;;
29902;SDS011;30288;50.514;9.678;2022-12-07T05:32:38;31.20;;;16.05;;
29902;SDS011;30288;50.514;9.678;2022-12-07T05:34:43;28.98;;;16.38;;
29902;SDS011;30288;50.514;9.678;2022-12-07T05:36:49;35.30;;;17.00;;
29902;SDS011;30288;50.514;9.678;2022-12-07T05:38:54;29.65;;;16.42;;
29902;SDS011;30288;50.514;9.678;2022-12-07T05:41:00;28.85;;;15.90;;
29902;SDS011;30288;50.514;9.678;2022-12-07T05:43:08;28.55;;;15.43;;
29902;SDS011;30288;50.514;9.678;2022-12-07T05:45:15;27.70;;;16.48;;
29902;SDS011;30288;50.514;9.678;2022-12-07T05:47:20;23.77;;;14.15;;
29902;SDS011;30288;50.514;9.678;2022-12-07T05:49:25;24.88;;;15.27;;
29902;SDS011;30288;50.514;9.678;2022-12-07T05:51:30;29.48;;;15.73;;
29902;SDS011;30288;50.514;9.678;2022-12-07T05:53:35;25.67;;;15.25;;
29902;SDS011;30288;50.514;9.678;2022-12-07T05:55:41;27.33;;;14.90;;
29902;SDS011;30288;50.514;9.678;2022-12-07T05:57:46;26.77;;;14.90;;
29902;SDS011;30288;50.514;9.678;2022-12-07T06:00:07;24.48;;;14.88;;
29902;SDS011;30288;50.514;9.678;2022-12-07T06:02:14;24.38;;;14.60;;
29902;SDS011;30288;50.514;9.678;2022-12-07T06:04:21;22.20;;;13.20;;
29902;SDS011;30288;50.514;9.678;2022-12-07T06:06:28;21.70;;;13.20;;
29902;SDS011;30288;50.514;9.678;2022-12-07T06:08:33;20.67;;;12.40;;
29902;SDS011;30288;50.514;9.678;2022-12-07T06:10:38;19.10;;;11.90;;
29902;SDS011;30288;50.514;9.678;2022-12-07T06:12:43;20.50;;;12.32;;
29902;SDS011;30288;50.514;9.678;2022-12-07T06:14:47;20.23;;;11.20;;
29902;SDS011;30288;50.514;9.678;2022-12-07T06:16:55;20.52;;;11.77;;
29902;SDS011;30288;50.514;9.678;2022-12-07T06:19:01;19.42;;;11.60;;
29902;SDS011;30288;50.514;9.678;2022-12-07T06:21:06;21.08;;;12.10;;
29902;SDS011;30288;50.514;9.678;2022-12-07T06:23:11;18.70;;;11.27;;
29902;SDS011;30288;50.514;9.678;2022-12-07T06:25:16;18.27;;;11.23;;
29902;SDS011;30288;50.514;9.678;2022-12-07T06:27:22;19.25;;;11.75;;
29902;SDS011;30288;50.514;9.678;2022-12-07T06:29:27;19.95;;;11.27;;
29902;SDS011;30288;50.514;9.678;2022-12-07T06:31:32;18.85;;;11.10;;
29902;SDS011;30288;50.514;9.678;2022-12-07T06:33:41;18.13;;;10.68;;
29902;SDS011;30288;50.514;9.678;2022-12-07T06:35:47;19.42;;;11.35;;
29902;SDS011;30288;50.514;9.678;2022-12-07T06:37:52;18.95;;;11.07;;
29902;SDS011;30288;50.514;9.678;2022-12-07T06:39:57;17.40;;;10.27;;
29902;SDS011;30288;50.514;9.678;2022-12-07T06:42:03;20.27;;;11.23;;
29902;SDS011;30288;50.514;9.678;2022-12-07T06:44:09;21.55;;;11.25;;
29902;SDS011;30288;50.514;9.678;2022-12-07T06:46:14;20.02;;;11.32;;
29902;SDS011;30288;50.514;9.678;2022-12-07T06:48:20;19.35;;;11.63;;
29902;SDS011;30288;50.514;9.678;2022-12-07T06:50:28;18.77;;;11.00;;
29902;SDS011;30288;50.514;9.678;2022-12-07T06:52:33;19.67;;;11.13;;
29902;SDS011;30288;50.514;9.678;2022-12-07T06:54:39;18.52;;;11.75;;
29902;SDS011;30288;50.514;9.678;2022-12-07T06:56:45;21.30;;;11.85;;
29902;SDS011;30288;50.514;9.678;2022-12-07T06:58:51;21.45;;;11.82;;
29902;SDS011;30288;50.514;9.678;2022-12-07T07:00:56;20.15;;;11.38;;
29902;SDS011;30288;50.514;9.678;2022-12-07T07:03:01;21.05;;;11.95;;
29902;SDS011;30288;50.514;9.678;2022-12-07T07:05:06;18.80;;;11.32;;
29902;SDS011;30288;50.514;9.678;2022-12-07T07:07:14;18.08;;;10.52;;
29902;SDS011;30288;50.514;9.678;2022-12-07T07:09:19;18.20;;;10.25;;
29902;SDS011;30288;50.514;9.678;2022-12-07T07:11:24;18.52;;;10.75;;
29902;SDS011;30288;50.514;9.678;2022-12-07T07:13:29;16.60;;;10.20;;
29902;SDS011;30288;50.514;9.678;2022-12-07T07:15:34;17.83;;;10.65;;
29902;SDS011;30288;50.514;9.678;2022-12-07T07:17:43;15.50;;;9.70;;
29902;SDS011;30288;50.514;9.678;2022-12-07T07:19:48;17.23;;;9.88;;
29902;SDS011;30288;50.514;9.678;2022-12-07T07:21:53;15.57;;;9.30;;
29902;SDS011;30288;50.514;9.678;2022-12-07T07:24:01;15.70;;;9.00;;
29902;SDS011;30288;50.514;9.678;2022-12-07T07:26:06;17.75;;;10.77;;
29902;SDS011;30288;50.514;9.678;2022-12-07T07:28:11;20.38;;;11.23;;
29902;SDS011;30288;50.514;9.678;2022-12-07T07:30:16;22.70;;;11.90;;
29902;SDS011;30288;50.514;9.678;2022-12-07T07:32:22;19.25;;;11.38;;
29902;SDS011;30288;50.514;9.678;2022-12-07T07:34:28;17.48;;;10.25;;
29902;SDS011;30288;50.514;9.678;2022-12-07T07:36:33;19.50;;;9.82;;
29902;SDS011;30288;50.514;9.678;2022-12-07T07:38:38;16.80;;;9.32;;
29902;SDS011;30288;50.514;9.678;2022-12-07T07:40:45;19.33;;;11.32;;
29902;SDS011;30288;50.514;9.678;2022-12-07T07:42:51;19.55;;;11.40;;
29902;SDS011;30288;50.514;9.678;2022-12-07T07:44:57;20.77;;;12.00;;
29902;SDS011;30288;50.514;9.678;2022-12-07T07:47:03;17.50;;;10.00;;
29902;SDS011;30288;50.514;9.678;2022-12-07T07:49:08;18.48;;;10.65;;
29902;SDS011;30288;50.514;9.678;2022-12-07T07:51:14;22.25;;;12.25;;
29902;SDS011;30288;50.514;9.678;2022-12-07T07:53:19;28.40;;;15.90;;
29902;SDS011;30288;50.514;9.678;2022-12-07T07:55:24;31.33;;;16.83;;
29902;SDS011;30288;50.514;9.678;2022-12-07T07:57:31;32.88;;;17.63;;
29902;SDS011;30288;50.514;9.678;2022-12-07T07:59:36;29.25;;;15.57;;
29902;SDS011;30288;50.514;9.678;2022-12-07T08:01:41;34.70;;;18.10;;
29902;SDS011;30288;50.514;9.678;2022-12-07T08:03:47;30.92;;;16.40;;
29902;SDS011;30288;50.514;9.678;2022-12-07T08:05:52;30.42;;;16.38;;
29902;SDS011;30288;50.514;9.678;2022-12-07T08:07:57;31.33;;;16.98;;
29902;SDS011;30288;50.514;9.678;2022-12-07T08:10:03;27.98;;;16.17;;
29902;SDS011;30288;50.514;9.678;2022-12-07T08:12:10;28.83;;;15.60;;
29902;SDS011;30288;50.514;9.678;2022-12-07T08:14:18;28.38;;;15.88;;
29902;SDS011;30288;50.514;9.678;2022-12-07T08:16:23;30.17;;;16.90;;
29902;SDS011;30288;50.514;9.678;2022-12-07T08:18:28;28.60;;;15.38;;
29902;SDS011;30288;50.514;9.678;2022-12-07T08:20:34;28.42;;;15.35;;
29902;SDS011;30288;50.514;9.678;2022-12-07T08:22:40;28.83;;;15.75;;
29902;SDS011;30288;50.514;9.678;2022-12-07T08:24:45;29.38;;;16.00;;
29902;SDS011;30288;50.514;9.678;2022-12-07T08:26:50;27.38;;;15.52;;
29902;SDS011;30288;50.514;9.678;2022-12-07T08:28:56;23.67;;;13.98;;
29902;SDS011;30288;50.514;9.678;2022-12-07T08:31:05;23.45;;;14.02;;
29902;SDS011;30288;50.514;9.678;2022-12-07T08:33:14;25.23;;;14.52;;
29902;SDS011;30288;50.514;9.678;2022-12-07T08:35:19;21.48;;;13.27;;
29902;SDS011;30288;50.514;9.678;2022-12-07T08:37:25;20.45;;;12.45;;
29902;SDS011;30288;50.514;9.678;2022-12-07T08:39:30;20.13;;;11.80;;
29902;SDS011;30288;50.514;9.678;2022-12-07T08:41:35;19.92;;;11.57;;
29902;SDS011;30288;50.514;9.678;2022-12-07T08:43:40;22.88;;;12.50;;
29902;SDS011;30288;50.514;9.678;2022-12-07T08:45:45;20.52;;;12.15;;
29902;SDS011;30288;50.514;9.678;2022-12-07T08:47:55;19.63;;;11.75;;
29902;SDS011;30288;50.514;9.678;2022-12-07T08:50:06;22.15;;;12.35;;
29902;SDS011;30288;50.514;9.678;2022-12-07T08:52:14;21.65;;;12.38;;
29902;SDS011;30288;50.514;9.678;2022-12-07T08:54:19;19.83;;;11.75;;
29902;SDS011;30288;50.514;9.678;2022-12-07T08:56:24;17.60;;;11.20;;
29902;SDS011;30288;50.514;9.678;2022-12-07T08:58:30;18.70;;;11.82;;
29902;SDS011;30288;50.514;9.678;2022-12-07T09:00:36;19.00;;;11.65;;
29902;SDS011;30288;50.514;9.678;2022-12-07T09:02:41;23.10;;;12.25;;
29902;SDS011;30288;50.514;9.678;2022-12-07T09:04:49;21.77;;;12.27;;
29902;SDS011;30288;50.514;9.678;2022-12-07T09:06:54;19.08;;;11.98;;
29902;SDS011;30288;50.514;9.678;2022-12-07T09:09:00;18.02;;;11.70;;
29902;SDS011;30288;50.514;9.678;2022-12-07T09:11:07;19.83;;;11.50;;
29902;SDS011;30288;50.514;9.678;2022-12-07T09:13:12;19.15;;;11.57;;
29902;SDS011;30288;50.514;9.678;2022-12-07T09:15:18;18.05;;;10.45;;
29902;SDS011;30288;50.514;9.678;2022-12-07T09:17:23;18.75;;;9.65;;
29902;SDS011;30288;50.514;9.678;2022-12-07T09:19:28;17.90;;;10.57;;
29902;SDS011;30288;50.514;9.678;2022-12-07T09:21:35;17.60;;;10.48;;
29902;SDS011;30288;50.514;9.678;2022-12-07T09:23:40;16.23;;;8.23;;
29902;SDS011;30288;50.514;9.678;2022-12-07T09:25:46;16.27;;;9.02;;
29902;SDS011;30288;50.514;9.678;2022-12-07T09:27:54;13.98;;;8.07;;
29902;SDS011;30288;50.514;9.678;2022-12-07T09:30:01;13.05;;;7.90;;
29902;SDS011;30288;50.514;9.678;2022-12-07T09:32:06;14.98;;;8.70;;
29902;SDS011;30288;50.514;9.678;2022-12-07T09:34:12;15.10;;;7.60;;
29902;SDS011;30288;50.514;9.678;2022-12-07T09:36:18;17.58;;;7.38;;
29902;SDS011;30288;50.514;9.678;2022-12-07T09:38:26;18.15;;;8.20;;
29902;SDS011;30288;50.514;9.678;2022-12-07T09:40:32;15.55;;;7.20;;
29902;SDS011;30288;50.514;9.678;2022-12-07T09:42:39;13.68;;;7.25;;
29902;SDS011;30288;50.514;9.678;2022-12-07T09:44:47;12.85;;;6.82;;
29902;SDS011;30288;50.514;9.678;2022-12-07T09:46:53;14.15;;;7.70;;
29902;SDS011;30288;50.514;9.678;2022-12-07T09:48:59;12.52;;;6.50;;
29902;SDS011;30288;50.514;9.678;2022-12-07T09:51:10;12.73;;;7.63;;
29902;SDS011;30288;50.514;9.678;2022-12-07T09:53:28;14.40;;;6.50;;
29902;SDS011;30288;50.514;9.678;2022-12-07T09:55:38;14.15;;;6.75;;
29902;SDS011;30288;50.514;9.678;2022-12-07T09:57:45;12.80;;;6.30;;
29902;SDS011;30288;50.514;9.678;2022-12-07T09:59:51;11.38;;;6.38;;
29902;SDS011;30288;50.514;9.678;2022-12-07T10:01:56;12.20;;;6.25;;
29902;SDS011;30288;50.514;9.678;2022-12-07T10:04:39;12.98;;;5.93;;
29902;SDS011;30288;50.514;9.678;2022-12-07T10:06:45;14.02;;;5.25;;
29902;SDS011;30288;50.514;9.678;2022-12-07T10:08:52;12.82;;;6.53;;
29902;SDS011;30288;50.514;9.678;2022-12-07T10:10:57;11.30;;;5.35;;
29902;SDS011;30288;50.514;9.678;2022-12-07T10:13:06;11.85;;;5.38;;
29902;SDS011;30288;50.514;9.678;2022-12-07T10:15:12;11.15;;;6.45;;
29902;SDS011;30288;50.514;9.678;2022-12-07T10:17:34;11.23;;;5.68;;
29902;SDS011;30288;50.514;9.678;2022-12-07T10:19:42;12.35;;;5.45;;
29902;SDS011;30288;50.514;9.678;2022-12-07T10:22:00;8.60;;;4.80;;
29902;SDS011;30288;50.514;9.678;2022-12-07T10:24:16;10.88;;;4.70;;
29902;SDS011;30288;50.514;9.678;2022-12-07T10:26:26;10.55;;;4.82;;
29902;SDS011;30288;50.514;9.678;2022-12-07T10:28:35;10.93;;;5.65;;
29902;SDS011;30288;50.514;9.678;2022-12-07T10:30:50;10.40;;;4.88;;
29902;SDS011;30288;50.514;9.678;2022-12-07T10:33:03;10.13;;;4.40;;
29902;SDS011;30288;50.514;9.678;2022-12-07T10:35:31;7.43;;;3.80;;
29902;SDS011;30288;50.514;9.678;2022-12-07T10:37:38;9.23;;;4.28;;
29902;SDS011;30288;50.514;9.678;2022-12-07T10:39:47;9.93;;;3.60;;
29902;SDS011;30288;50.514;9.678;2022-12-07T10:41:54;11.07;;;3.65;;
29902;SDS011;30288;50.514;9.678;2022-12-07T10:44:01;9.75;;;3.80;;
29902;SDS011;30288;50.514;9.678;2022-12-07T10:46:10;8.23;;;3.88;;
29902;SDS011;30288;50.514;9.678;2022-12-07T10:48:59;10.02;;;4.13;;
29902;SDS011;30288;50.514;9.678;2022-12-07T10:51:23;8.70;;;3.75;;
29902;SDS011;30288;50.514;9.678;2022-12-07T10:53:43;9.65;;;4.00;;
29902;SDS011;30288;50.514;9.678;2022-12-07T10:56:01;10.60;;;3.83;;
29902;SDS011;30288;50.514;9.678;2022-12-07T10:58:40;9.07;;;3.70;;
29902;SDS011;30288;50.514;9.678;2022-12-07T11:01:03;11.73;;;4.25;;
29902;SDS011;30288;50.514;9.678;2022-12-07T11:03:27;9.88;;;3.78;;
29902;SDS011;30288;50.514;9.678;2022-12-07T11:05:45;7.90;;;3.40;;
29902;SDS011;30288;50.514;9.678;2022-12-07T11:08:00;13.93;;;3.30;;
29902;SDS011;30288;50.514;9.678;2022-12-07T11:10:17;8.60;;;3.35;;
29902;SDS011;30288;50.514;9.678;2022-12-07T11:12:32;8.02;;;3.67;;
29902;SDS011;30288;50.514;9.678;2022-12-07T11:14:53;9.40;;;4.03;;
29902;SDS011;30288;50.514;9.678;2022-12-07T11:17:05;7.97;;;3.90;;
29902;SDS011;30288;50.514;9.678;2022-12-07T11:19:24;10.43;;;4.30;;
29902;SDS011;30288;50.514;9.678;2022-12-07T11:21:56;10.60;;;3.90;;
29902;SDS011;30288;50.514;9.678;2022-12-07T11:24:03;8.43;;;3.65;;
29902;SDS011;30288;50.514;9.678;2022-12-07T11:26:16;8.43;;;3.92;;
29902;SDS011;30288;50.514;9.678;2022-12-07T11:28:39;10.60;;;4.30;;
29902;SDS011;30288;50.514;9.678;2022-12-07T11:31:08;8.32;;;4.35;;
29902;SDS011;30288;50.514;9.678;2022-12-07T11:33:29;12.63;;;4.65;;
29902;SDS011;30288;50.514;9.678;2022-12-07T11:35:45;9.60;;;4.25;;
29902;SDS011;30288;50.514;9.678;2022-12-07T11:38:07;9.95;;;4.47;;
29902;SDS011;30288;50.514;9.678;2022-12-07T11:40:22;10.68;;;4.90;;
29902;SDS011;30288;50.514;9.678;2022-12-07T11:42:36;9.68;;;4.30;;
29902;SDS011;30288;50.514;9.678;2022-12-07T11:44:47;11.23;;;4.63;;
29902;SDS011;30288;50.514;9.678;2022-12-07T11:46:58;10.57;;;5.93;;
29902;SDS011;30288;50.514;9.678;2022-12-07T11:49:14;9.38;;;4.65;;
29902;SDS011;30288;50.514;9.678;2022-12-07T11:51:31;8.18;;;4.55;;
29902;SDS011;30288;50.514;9.678;2022-12-07T11:53:44;11.05;;;4.90;;
29902;SDS011;30288;50.514;9.678;2022-12-07T11:55:54;9.53;;;4.20;;
29902;SDS011;30288;50.514;9.678;2022-12-07T11:58:08;9.70;;;3.92;;
29902;SDS011;30288;50.514;9.678;2022-12-07T12:00:34;9.80;;;3.22;;
29902;SDS011;30288;50.514;9.678;2022-12-07T12:02:43;7.70;;;3.67;;
29902;SDS011;30288;50.514;9.678;2022-12-07T12:04:54;7.80;;;3.38;;
29902;SDS011;30288;50.514;9.678;2022-12-07T12:07:06;6.85;;;3.42;;
29902;SDS011;30288;50.514;9.678;2022-12-07T12:09:40;7.70;;;3.53;;
29902;SDS011;30288;50.514;9.678;2022-12-07T12:12:07;5.70;;;3.05;;
29902;SDS011;30288;50.514;9.678;2022-12-07T12:14:55;7.18;;;3.67;;
29902;SDS011;30288;50.514;9.678;2022-12-07T12:20:15;8.32;;;3.40;;
29902;SDS011;30288;50.514;9.678;2022-12-07T12:22:32;9.32;;;4.03;;
29902;SDS011;30288;50.514;9.678;2022-12-07T12:24:44;7.32;;;3.92;;
29902;SDS011;30288;50.514;9.678;2022-12-07T12:26:57;9.30;;;3.75;;
29902;SDS011;30288;50.514;9.678;2022-12-07T12:29:19;9.23;;;3.38;;
29902;SDS011;30288;50.514;9.678;2022-12-07T12:31:35;8.07;;;3.78;;
29902;SDS011;30288;50.514;9.678;2022-12-07T12:33:44;10.52;;;3.72;;
29902;SDS011;30288;50.514;9.678;2022-12-07T12:38:26;9.75;;;4.00;;
29902;SDS011;30288;50.514;9.678;2022-12-07T12:40:42;10.80;;;3.40;;
29902;SDS011;30288;50.514;9.678;2022-12-07T12:42:52;9.02;;;3.28;;
29902;SDS011;30288;50.514;9.678;2022-12-07T12:45:02;11.85;;;2.95;;
29902;SDS011;30288;50.514;9.678;2022-12-07T12:47:40;6.78;;;2.83;;